sensor_id;sensor_type;location;lat;lon;timestamp;P1;durP1;ratioP1;P2;durP2;ratioP2
8100;SDS011;4093;53.470;9.832;2022-10-13T00:02:15;8.17;;;3.70;;
8100;SDS011;4093;53.470;9.832;2022-10-13T00:04:45;11.10;;;3.70;;
8100;SDS011;4093;53.470;9.832;2022-10-13T00:07:13;9.17;;;4.10;;
8100;SDS011;4093;53.470;9.832;2022-10-13T00:09:40;10.20;;;4.23;;
8100;SDS011;4093;53.470;9.832;2022-10-13T00:12:08;7.50;;;4.07;;
8100;SDS011;4093;53.470;9.832;2022-10-13T00:14:36;6.90;;;3.50;;
8100;SDS011;4093;53.470;9.832;2022-10-13T00:17:04;7.03;;;3.70;;
8100;SDS011;4093;53.470;9.832;2022-10-13T00:19:32;6.43;;;3.90;;
8100;SDS011;4093;53.470;9.832;2022-10-13T00:22:01;9.43;;;4.50;;
8100;SDS011;4093;53.470;9.832;2022-10-13T00:24:28;5.67;;;3.70;;
8100;SDS011;4093;53.470;9.832;2022-10-13T00:26:56;5.53;;;3.67;;
8100;SDS011;4093;53.470;9.832;2022-10-13T00:29:24;9.43;;;3.67;;
8100;SDS011;4093;53.470;9.832;2022-10-13T00:31:52;5.30;;;3.50;;
8100;SDS011;4093;53.470;9.832;2022-10-13T00:34:19;7.33;;;4.07;;
8100;SDS011;4093;53.470;9.832;2022-10-13T00:36:47;9.20;;;4.30;;
8100;SDS011;4093;53.470;9.832;2022-10-13T00:39:16;9.40;;;4.10;;
8100;SDS011;4093;53.470;9.832;2022-10-13T00:41:44;10.30;;;4.00;;
8100;SDS011;4093;53.470;9.832;2022-10-13T00:47:17;7.93;;;3.67;;
8100;SDS011;4093;53.470;9.832;2022-10-13T00:49:45;8.90;;;4.03;;
8100;SDS011;4093;53.470;9.832;2022-10-13T00:52:14;9.97;;;4.30;;
8100;SDS011;4093;53.470;9.832;2022-10-13T00:54:46;10.67;;;4.37;;
8100;SDS011;4093;53.470;9.832;2022-10-13T00:57:16;7.13;;;4.20;;
8100;SDS011;4093;53.470;9.832;2022-10-13T00:59:45;9.10;;;4.20;;
8100;SDS011;4093;53.470;9.832;2022-10-13T01:02:14;8.67;;;4.50;;
8100;SDS011;4093;53.470;9.832;2022-10-13T01:04:43;9.50;;;5.00;;
8100;SDS011;4093;53.470;9.832;2022-10-13T01:07:13;7.37;;;4.40;;
8100;SDS011;4093;53.470;9.832;2022-10-13T01:09:43;9.10;;;4.57;;
8100;SDS011;4093;53.470;9.832;2022-10-13T01:12:15;7.80;;;4.80;;
8100;SDS011;4093;53.470;9.832;2022-10-13T01:15:00;11.33;;;4.67;;
8100;SDS011;4093;53.470;9.832;2022-10-13T01:17:36;11.43;;;4.90;;
8100;SDS011;4093;53.470;9.832;2022-10-13T01:20:15;7.87;;;4.57;;
8100;SDS011;4093;53.470;9.832;2022-10-13T01:23:05;7.53;;;4.27;;
8100;SDS011;4093;53.470;9.832;2022-10-13T01:25:53;9.00;;;4.67;;
8100;SDS011;4093;53.470;9.832;2022-10-13T01:28:42;7.93;;;4.67;;
8100;SDS011;4093;53.470;9.832;2022-10-13T01:31:23;8.47;;;5.03;;
8100;SDS011;4093;53.470;9.832;2022-10-13T01:34:02;7.77;;;4.93;;
8100;SDS011;4093;53.470;9.832;2022-10-13T01:36:38;8.40;;;4.90;;
8100;SDS011;4093;53.470;9.832;2022-10-13T01:39:16;11.23;;;5.13;;
8100;SDS011;4093;53.470;9.832;2022-10-13T01:41:50;10.33;;;5.67;;
8100;SDS011;4093;53.470;9.832;2022-10-13T01:44:24;12.03;;;5.20;;
8100;SDS011;4093;53.470;9.832;2022-10-13T01:46:57;8.10;;;4.90;;
8100;SDS011;4093;53.470;9.832;2022-10-13T01:49:29;8.87;;;4.60;;
8100;SDS011;4093;53.470;9.832;2022-10-13T01:52:00;12.17;;;5.37;;
8100;SDS011;4093;53.470;9.832;2022-10-13T01:54:31;9.07;;;5.20;;
8100;SDS011;4093;53.470;9.832;2022-10-13T01:56:59;10.27;;;5.27;;
8100;SDS011;4093;53.470;9.832;2022-10-13T01:59:27;7.13;;;4.40;;
8100;SDS011;4093;53.470;9.832;2022-10-13T02:02:02;11.37;;;5.30;;
8100;SDS011;4093;53.470;9.832;2022-10-13T02:04:41;9.50;;;5.13;;
8100;SDS011;4093;53.470;9.832;2022-10-13T02:07:18;9.00;;;5.50;;
8100;SDS011;4093;53.470;9.832;2022-10-13T02:09:53;9.43;;;5.30;;
8100;SDS011;4093;53.470;9.832;2022-10-13T02:12:25;10.90;;;5.17;;
8100;SDS011;4093;53.470;9.832;2022-10-13T02:14:56;11.23;;;5.37;;
8100;SDS011;4093;53.470;9.832;2022-10-13T02:17:27;9.67;;;5.57;;
8100;SDS011;4093;53.470;9.832;2022-10-13T02:19:56;8.67;;;5.30;;
8100;SDS011;4093;53.470;9.832;2022-10-13T02:22:32;11.73;;;5.30;;
8100;SDS011;4093;53.470;9.832;2022-10-13T02:25:03;10.87;;;5.13;;
8100;SDS011;4093;53.470;9.832;2022-10-13T02:27:32;6.90;;;5.37;;
8100;SDS011;4093;53.470;9.832;2022-10-13T02:30:00;10.93;;;5.67;;
8100;SDS011;4093;53.470;9.832;2022-10-13T02:32:29;12.80;;;5.77;;
8100;SDS011;4093;53.470;9.832;2022-10-13T02:34:57;11.87;;;6.17;;
8100;SDS011;4093;53.470;9.832;2022-10-13T02:37:25;10.03;;;5.17;;
8100;SDS011;4093;53.470;9.832;2022-10-13T02:39:53;10.30;;;5.13;;
8100;SDS011;4093;53.470;9.832;2022-10-13T02:42:20;13.63;;;5.57;;
8100;SDS011;4093;53.470;9.832;2022-10-13T02:44:49;13.90;;;6.07;;
8100;SDS011;4093;53.470;9.832;2022-10-13T02:47:16;11.40;;;5.07;;
8100;SDS011;4093;53.470;9.832;2022-10-13T02:49:45;9.13;;;5.33;;
8100;SDS011;4093;53.470;9.832;2022-10-13T02:52:13;10.90;;;5.47;;
8100;SDS011;4093;53.470;9.832;2022-10-13T02:54:41;16.67;;;5.67;;
8100;SDS011;4093;53.470;9.832;2022-10-13T02:57:09;13.03;;;5.97;;
8100;SDS011;4093;53.470;9.832;2022-10-13T02:59:36;9.30;;;5.70;;
8100;SDS011;4093;53.470;9.832;2022-10-13T03:02:05;12.30;;;5.63;;
8100;SDS011;4093;53.470;9.832;2022-10-13T03:04:32;14.13;;;6.07;;
8100;SDS011;4093;53.470;9.832;2022-10-13T03:07:02;11.43;;;5.77;;
8100;SDS011;4093;53.470;9.832;2022-10-13T03:09:29;9.73;;;6.47;;
8100;SDS011;4093;53.470;9.832;2022-10-13T03:11:57;13.60;;;6.30;;
8100;SDS011;4093;53.470;9.832;2022-10-13T03:14:25;14.43;;;6.40;;
8100;SDS011;4093;53.470;9.832;2022-10-13T03:16:53;10.97;;;6.57;;
8100;SDS011;4093;53.470;9.832;2022-10-13T03:19:21;10.27;;;5.90;;
8100;SDS011;4093;53.470;9.832;2022-10-13T03:21:48;18.17;;;6.80;;
8100;SDS011;4093;53.470;9.832;2022-10-13T03:24:18;11.27;;;6.00;;
8100;SDS011;4093;53.470;9.832;2022-10-13T03:26:45;13.53;;;6.40;;
8100;SDS011;4093;53.470;9.832;2022-10-13T03:29:13;11.37;;;6.13;;
8100;SDS011;4093;53.470;9.832;2022-10-13T03:31:41;13.07;;;6.87;;
8100;SDS011;4093;53.470;9.832;2022-10-13T03:34:10;12.80;;;6.30;;
8100;SDS011;4093;53.470;9.832;2022-10-13T03:36:39;13.00;;;6.67;;
8100;SDS011;4093;53.470;9.832;2022-10-13T03:39:06;12.37;;;6.67;;
8100;SDS011;4093;53.470;9.832;2022-10-13T03:41:36;17.40;;;6.90;;
8100;SDS011;4093;53.470;9.832;2022-10-13T03:44:03;12.47;;;6.97;;
8100;SDS011;4093;53.470;9.832;2022-10-13T03:46:32;14.30;;;7.50;;
8100;SDS011;4093;53.470;9.832;2022-10-13T03:49:00;11.80;;;6.50;;
8100;SDS011;4093;53.470;9.832;2022-10-13T03:51:28;14.77;;;7.13;;
8100;SDS011;4093;53.470;9.832;2022-10-13T03:53:56;12.50;;;6.67;;
8100;SDS011;4093;53.470;9.832;2022-10-13T03:56:24;16.20;;;7.23;;
8100;SDS011;4093;53.470;9.832;2022-10-13T03:58:55;11.87;;;6.87;;
8100;SDS011;4093;53.470;9.832;2022-10-13T04:01:25;15.33;;;7.63;;
8100;SDS011;4093;53.470;9.832;2022-10-13T04:03:56;12.70;;;7.67;;
8100;SDS011;4093;53.470;9.832;2022-10-13T04:06:27;12.83;;;6.83;;
8100;SDS011;4093;53.470;9.832;2022-10-13T04:08:55;10.00;;;6.70;;
8100;SDS011;4093;53.470;9.832;2022-10-13T04:11:24;14.50;;;7.00;;
8100;SDS011;4093;53.470;9.832;2022-10-13T04:13:52;13.73;;;6.20;;
8100;SDS011;4093;53.470;9.832;2022-10-13T04:16:23;13.77;;;6.80;;
8100;SDS011;4093;53.470;9.832;2022-10-13T04:18:53;14.07;;;6.97;;
8100;SDS011;4093;53.470;9.832;2022-10-13T04:21:22;14.53;;;7.00;;
8100;SDS011;4093;53.470;9.832;2022-10-13T04:23:50;11.80;;;6.77;;
8100;SDS011;4093;53.470;9.832;2022-10-13T04:26:18;13.40;;;7.17;;
8100;SDS011;4093;53.470;9.832;2022-10-13T04:28:48;13.47;;;7.00;;
8100;SDS011;4093;53.470;9.832;2022-10-13T04:31:17;12.97;;;7.17;;
8100;SDS011;4093;53.470;9.832;2022-10-13T04:33:48;16.60;;;7.60;;
8100;SDS011;4093;53.470;9.832;2022-10-13T04:36:17;8.90;;;7.13;;
8100;SDS011;4093;53.470;9.832;2022-10-13T04:38:45;18.53;;;7.77;;
8100;SDS011;4093;53.470;9.832;2022-10-13T04:41:14;16.47;;;8.40;;
8100;SDS011;4093;53.470;9.832;2022-10-13T04:43:45;13.33;;;7.97;;
8100;SDS011;4093;53.470;9.832;2022-10-13T04:46:15;14.57;;;7.47;;
8100;SDS011;4093;53.470;9.832;2022-10-13T04:48:44;15.93;;;8.00;;
8100;SDS011;4093;53.470;9.832;2022-10-13T04:51:15;11.67;;;7.57;;
8100;SDS011;4093;53.470;9.832;2022-10-13T04:53:44;15.60;;;7.10;;
8100;SDS011;4093;53.470;9.832;2022-10-13T04:56:13;13.83;;;7.97;;
8100;SDS011;4093;53.470;9.832;2022-10-13T04:58:42;12.23;;;7.50;;
8100;SDS011;4093;53.470;9.832;2022-10-13T05:01:11;18.80;;;8.30;;
8100;SDS011;4093;53.470;9.832;2022-10-13T05:03:49;16.93;;;7.77;;
8100;SDS011;4093;53.470;9.832;2022-10-13T05:06:20;13.90;;;8.30;;
8100;SDS011;4093;53.470;9.832;2022-10-13T05:08:50;14.53;;;8.50;;
8100;SDS011;4093;53.470;9.832;2022-10-13T05:11:18;14.17;;;9.10;;
8100;SDS011;4093;53.470;9.832;2022-10-13T05:13:46;14.23;;;8.20;;
8100;SDS011;4093;53.470;9.832;2022-10-13T05:16:15;19.27;;;10.07;;
8100;SDS011;4093;53.470;9.832;2022-10-13T05:18:45;12.30;;;8.87;;
8100;SDS011;4093;53.470;9.832;2022-10-13T05:21:13;19.10;;;9.80;;
8100;SDS011;4093;53.470;9.832;2022-10-13T05:23:44;18.63;;;10.13;;
8100;SDS011;4093;53.470;9.832;2022-10-13T05:26:12;14.60;;;9.53;;
8100;SDS011;4093;53.470;9.832;2022-10-13T05:28:42;15.23;;;10.33;;
8100;SDS011;4093;53.470;9.832;2022-10-13T05:31:11;16.00;;;9.60;;
8100;SDS011;4093;53.470;9.832;2022-10-13T05:33:40;20.27;;;10.73;;
8100;SDS011;4093;53.470;9.832;2022-10-13T05:36:09;20.50;;;11.00;;
8100;SDS011;4093;53.470;9.832;2022-10-13T05:38:38;21.93;;;10.53;;
8100;SDS011;4093;53.470;9.832;2022-10-13T05:41:08;19.20;;;10.73;;
8100;SDS011;4093;53.470;9.832;2022-10-13T05:43:37;17.47;;;10.70;;
8100;SDS011;4093;53.470;9.832;2022-10-13T05:46:06;22.37;;;11.87;;
8100;SDS011;4093;53.470;9.832;2022-10-13T05:48:34;18.93;;;10.97;;
8100;SDS011;4093;53.470;9.832;2022-10-13T05:51:03;16.83;;;10.87;;
8100;SDS011;4093;53.470;9.832;2022-10-13T05:53:36;20.00;;;11.07;;
8100;SDS011;4093;53.470;9.832;2022-10-13T05:56:15;14.23;;;9.93;;
8100;SDS011;4093;53.470;9.832;2022-10-13T05:58:47;18.20;;;10.73;;
8100;SDS011;4093;53.470;9.832;2022-10-13T06:01:18;17.57;;;11.30;;
8100;SDS011;4093;53.470;9.832;2022-10-13T06:03:49;21.17;;;11.70;;
8100;SDS011;4093;53.470;9.832;2022-10-13T06:06:21;18.23;;;10.97;;
8100;SDS011;4093;53.470;9.832;2022-10-13T06:08:56;20.53;;;10.50;;
8100;SDS011;4093;53.470;9.832;2022-10-13T06:11:26;26.80;;;12.10;;
8100;SDS011;4093;53.470;9.832;2022-10-13T06:13:53;19.87;;;11.37;;
8100;SDS011;4093;53.470;9.832;2022-10-13T06:16:22;18.13;;;10.13;;
8100;SDS011;4093;53.470;9.832;2022-10-13T06:18:49;17.87;;;11.17;;
8100;SDS011;4093;53.470;9.832;2022-10-13T06:21:17;21.47;;;12.03;;
8100;SDS011;4093;53.470;9.832;2022-10-13T06:23:45;19.30;;;10.90;;
8100;SDS011;4093;53.470;9.832;2022-10-13T06:26:13;14.60;;;9.20;;
8100;SDS011;4093;53.470;9.832;2022-10-13T06:28:42;20.70;;;10.67;;
8100;SDS011;4093;53.470;9.832;2022-10-13T06:31:15;17.47;;;10.77;;
8100;SDS011;4093;53.470;9.832;2022-10-13T06:33:43;22.83;;;10.23;;
8100;SDS011;4093;53.470;9.832;2022-10-13T06:36:11;20.33;;;11.00;;
8100;SDS011;4093;53.470;9.832;2022-10-13T06:38:39;20.23;;;10.83;;
8100;SDS011;4093;53.470;9.832;2022-10-13T06:41:06;19.37;;;10.60;;
8100;SDS011;4093;53.470;9.832;2022-10-13T06:43:34;18.87;;;10.30;;
8100;SDS011;4093;53.470;9.832;2022-10-13T06:46:07;17.77;;;10.33;;
8100;SDS011;4093;53.470;9.832;2022-10-13T06:48:35;22.53;;;11.33;;
8100;SDS011;4093;53.470;9.832;2022-10-13T06:51:03;17.23;;;9.30;;
8100;SDS011;4093;53.470;9.832;2022-10-13T06:53:33;17.60;;;9.33;;
8100;SDS011;4093;53.470;9.832;2022-10-13T06:56:02;21.00;;;9.83;;
8100;SDS011;4093;53.470;9.832;2022-10-13T06:58:32;22.97;;;10.23;;
8100;SDS011;4093;53.470;9.832;2022-10-13T07:01:00;17.67;;;10.73;;
8100;SDS011;4093;53.470;9.832;2022-10-13T07:03:30;15.47;;;9.53;;
8100;SDS011;4093;53.470;9.832;2022-10-13T07:06:01;18.93;;;10.17;;
8100;SDS011;4093;53.470;9.832;2022-10-13T07:08:30;20.47;;;10.07;;
8100;SDS011;4093;53.470;9.832;2022-10-13T07:11:04;21.70;;;11.20;;
8100;SDS011;4093;53.470;9.832;2022-10-13T07:13:38;21.80;;;10.20;;
8100;SDS011;4093;53.470;9.832;2022-10-13T07:16:12;21.47;;;12.00;;
8100;SDS011;4093;53.470;9.832;2022-10-13T07:18:42;21.60;;;11.70;;
8100;SDS011;4093;53.470;9.832;2022-10-13T07:21:10;21.40;;;11.50;;
8100;SDS011;4093;53.470;9.832;2022-10-13T07:23:38;18.10;;;10.87;;
8100;SDS011;4093;53.470;9.832;2022-10-13T07:26:06;22.33;;;11.27;;
8100;SDS011;4093;53.470;9.832;2022-10-13T07:28:34;21.10;;;11.20;;
8100;SDS011;4093;53.470;9.832;2022-10-13T07:31:05;18.03;;;11.23;;
8100;SDS011;4093;53.470;9.832;2022-10-13T07:33:36;18.40;;;11.00;;
8100;SDS011;4093;53.470;9.832;2022-10-13T07:36:06;20.70;;;12.60;;
8100;SDS011;4093;53.470;9.832;2022-10-13T07:38:35;24.40;;;13.00;;
8100;SDS011;4093;53.470;9.832;2022-10-13T07:41:04;23.03;;;12.47;;
8100;SDS011;4093;53.470;9.832;2022-10-13T07:43:33;20.93;;;12.20;;
8100;SDS011;4093;53.470;9.832;2022-10-13T07:46:01;21.77;;;12.50;;
8100;SDS011;4093;53.470;9.832;2022-10-13T07:48:30;22.27;;;12.50;;
8100;SDS011;4093;53.470;9.832;2022-10-13T07:51:01;22.43;;;12.47;;
8100;SDS011;4093;53.470;9.832;2022-10-13T07:53:32;18.03;;;12.83;;
8100;SDS011;4093;53.470;9.832;2022-10-13T07:56:00;27.80;;;12.30;;
8100;SDS011;4093;53.470;9.832;2022-10-13T07:58:29;19.73;;;11.73;;
8100;SDS011;4093;53.470;9.832;2022-10-13T08:00:58;18.07;;;13.00;;
8100;SDS011;4093;53.470;9.832;2022-10-13T08:03:27;25.80;;;13.90;;
8100;SDS011;4093;53.470;9.832;2022-10-13T08:05:57;23.73;;;14.07;;
8100;SDS011;4093;53.470;9.832;2022-10-13T08:08:25;22.33;;;15.03;;
8100;SDS011;4093;53.470;9.832;2022-10-13T08:10:54;26.33;;;15.33;;
8100;SDS011;4093;53.470;9.832;2022-10-13T08:13:26;24.73;;;14.87;;
8100;SDS011;4093;53.470;9.832;2022-10-13T08:15:54;19.50;;;13.73;;
8100;SDS011;4093;53.470;9.832;2022-10-13T08:18:27;20.10;;;13.57;;
8100;SDS011;4093;53.470;9.832;2022-10-13T08:20:58;22.60;;;14.20;;
8100;SDS011;4093;53.470;9.832;2022-10-13T08:23:47;24.90;;;14.27;;
8100;SDS011;4093;53.470;9.832;2022-10-13T08:26:17;21.10;;;12.50;;
8100;SDS011;4093;53.470;9.832;2022-10-13T08:28:48;21.77;;;13.60;;
8100;SDS011;4093;53.470;9.832;2022-10-13T08:31:36;22.67;;;15.03;;
8100;SDS011;4093;53.470;9.832;2022-10-13T08:34:04;27.60;;;14.63;;
8100;SDS011;4093;53.470;9.832;2022-10-13T08:36:32;21.17;;;12.60;;
8100;SDS011;4093;53.470;9.832;2022-10-13T08:39:00;19.10;;;12.83;;
8100;SDS011;4093;53.470;9.832;2022-10-13T08:41:30;20.43;;;12.97;;
8100;SDS011;4093;53.470;9.832;2022-10-13T08:44:03;25.30;;;13.63;;
8100;SDS011;4093;53.470;9.832;2022-10-13T08:46:54;23.73;;;13.33;;
8100;SDS011;4093;53.470;9.832;2022-10-13T08:49:27;23.47;;;13.47;;
8100;SDS011;4093;53.470;9.832;2022-10-13T08:51:57;22.13;;;14.37;;
8100;SDS011;4093;53.470;9.832;2022-10-13T08:54:25;28.10;;;13.03;;
8100;SDS011;4093;53.470;9.832;2022-10-13T08:56:54;20.47;;;13.83;;
8100;SDS011;4093;53.470;9.832;2022-10-13T08:59:22;20.40;;;13.37;;
8100;SDS011;4093;53.470;9.832;2022-10-13T09:01:51;23.27;;;13.27;;
8100;SDS011;4093;53.470;9.832;2022-10-13T09:04:25;22.77;;;13.10;;
8100;SDS011;4093;53.470;9.832;2022-10-13T09:06:57;21.47;;;14.00;;
8100;SDS011;4093;53.470;9.832;2022-10-13T09:09:29;21.60;;;13.00;;
8100;SDS011;4093;53.470;9.832;2022-10-13T09:11:58;22.83;;;13.80;;
8100;SDS011;4093;53.470;9.832;2022-10-13T09:14:27;26.37;;;14.57;;
8100;SDS011;4093;53.470;9.832;2022-10-13T09:17:11;27.07;;;15.60;;
8100;SDS011;4093;53.470;9.832;2022-10-13T09:19:41;21.73;;;13.00;;
8100;SDS011;4093;53.470;9.832;2022-10-13T09:22:13;18.00;;;12.83;;
8100;SDS011;4093;53.470;9.832;2022-10-13T09:24:42;19.83;;;13.43;;
8100;SDS011;4093;53.470;9.832;2022-10-13T09:27:13;21.80;;;12.27;;
8100;SDS011;4093;53.470;9.832;2022-10-13T09:29:42;21.20;;;13.10;;
8100;SDS011;4093;53.470;9.832;2022-10-13T09:32:15;18.43;;;12.37;;
8100;SDS011;4093;53.470;9.832;2022-10-13T09:34:45;20.30;;;12.33;;
8100;SDS011;4093;53.470;9.832;2022-10-13T09:37:17;19.43;;;12.17;;
8100;SDS011;4093;53.470;9.832;2022-10-13T09:39:58;19.50;;;11.67;;
8100;SDS011;4093;53.470;9.832;2022-10-13T09:42:29;23.83;;;12.67;;
8100;SDS011;4093;53.470;9.832;2022-10-13T09:44:58;21.27;;;11.73;;
8100;SDS011;4093;53.470;9.832;2022-10-13T09:47:29;25.03;;;12.73;;
8100;SDS011;4093;53.470;9.832;2022-10-13T09:49:59;20.47;;;11.67;;
8100;SDS011;4093;53.470;9.832;2022-10-13T09:52:32;18.83;;;11.47;;
8100;SDS011;4093;53.470;9.832;2022-10-13T09:55:01;19.70;;;12.87;;
8100;SDS011;4093;53.470;9.832;2022-10-13T09:57:35;24.80;;;13.57;;
8100;SDS011;4093;53.470;9.832;2022-10-13T10:00:10;18.73;;;12.20;;
8100;SDS011;4093;53.470;9.832;2022-10-13T10:02:44;22.53;;;13.27;;
8100;SDS011;4093;53.470;9.832;2022-10-13T10:05:23;18.03;;;12.10;;
8100;SDS011;4093;53.470;9.832;2022-10-13T10:07:52;22.33;;;13.00;;
8100;SDS011;4093;53.470;9.832;2022-10-13T10:10:26;22.97;;;13.37;;
8100;SDS011;4093;53.470;9.832;2022-10-13T10:13:00;23.03;;;12.57;;
8100;SDS011;4093;53.470;9.832;2022-10-13T10:15:29;18.37;;;12.03;;
8100;SDS011;4093;53.470;9.832;2022-10-13T10:18:06;18.47;;;12.37;;
8100;SDS011;4093;53.470;9.832;2022-10-13T10:20:49;22.50;;;12.93;;
8100;SDS011;4093;53.470;9.832;2022-10-13T10:23:32;22.77;;;13.30;;
8100;SDS011;4093;53.470;9.832;2022-10-13T10:26:10;19.83;;;12.47;;
8100;SDS011;4093;53.470;9.832;2022-10-13T10:28:51;18.87;;;11.40;;
8100;SDS011;4093;53.470;9.832;2022-10-13T10:31:37;23.43;;;13.07;;
8100;SDS011;4093;53.470;9.832;2022-10-13T10:34:27;18.27;;;12.53;;
8100;SDS011;4093;53.470;9.832;2022-10-13T10:37:12;16.67;;;12.23;;
8100;SDS011;4093;53.470;9.832;2022-10-13T10:39:50;18.00;;;12.63;;
8100;SDS011;4093;53.470;9.832;2022-10-13T10:45:26;20.73;;;12.93;;
8100;SDS011;4093;53.470;9.832;2022-10-13T10:47:58;20.27;;;13.00;;
8100;SDS011;4093;53.470;9.832;2022-10-13T10:50:28;21.03;;;13.70;;
8100;SDS011;4093;53.470;9.832;2022-10-13T10:52:59;19.30;;;13.30;;
8100;SDS011;4093;53.470;9.832;2022-10-13T10:55:32;21.47;;;12.93;;
8100;SDS011;4093;53.470;9.832;2022-10-13T10:58:10;22.40;;;13.67;;
8100;SDS011;4093;53.470;9.832;2022-10-13T11:00:50;17.40;;;11.70;;
8100;SDS011;4093;53.470;9.832;2022-10-13T11:03:28;18.73;;;11.93;;
8100;SDS011;4093;53.470;9.832;2022-10-13T11:06:20;18.33;;;11.57;;
8100;SDS011;4093;53.470;9.832;2022-10-13T11:08:51;16.97;;;12.83;;
8100;SDS011;4093;53.470;9.832;2022-10-13T11:11:34;21.67;;;12.17;;
8100;SDS011;4093;53.470;9.832;2022-10-13T11:14:23;17.43;;;11.70;;
8100;SDS011;4093;53.470;9.832;2022-10-13T11:17:02;18.47;;;11.30;;
8100;SDS011;4093;53.470;9.832;2022-10-13T11:19:37;18.23;;;11.33;;
8100;SDS011;4093;53.470;9.832;2022-10-13T11:22:16;16.67;;;11.57;;
8100;SDS011;4093;53.470;9.832;2022-10-13T11:24:53;19.00;;;11.20;;
8100;SDS011;4093;53.470;9.832;2022-10-13T11:27:40;19.53;;;10.93;;
8100;SDS011;4093;53.470;9.832;2022-10-13T11:36:29;16.13;;;10.57;;
8100;SDS011;4093;53.470;9.832;2022-10-13T11:51:38;17.37;;;11.03;;
8100;SDS011;4093;53.470;9.832;2022-10-13T11:54:20;18.00;;;11.57;;
8100;SDS011;4093;53.470;9.832;2022-10-13T11:56:53;21.77;;;11.07;;
8100;SDS011;4093;53.470;9.832;2022-10-13T11:59:23;17.47;;;11.63;;
8100;SDS011;4093;53.470;9.832;2022-10-13T12:01:54;17.43;;;10.97;;
8100;SDS011;4093;53.470;9.832;2022-10-13T12:04:25;17.40;;;11.10;;
8100;SDS011;4093;53.470;9.832;2022-10-13T12:06:56;16.87;;;11.40;;
8100;SDS011;4093;53.470;9.832;2022-10-13T12:09:27;18.80;;;10.37;;
8100;SDS011;4093;53.470;9.832;2022-10-13T12:11:58;19.23;;;11.37;;
8100;SDS011;4093;53.470;9.832;2022-10-13T12:14:30;19.20;;;11.67;;
8100;SDS011;4093;53.470;9.832;2022-10-13T12:17:15;18.03;;;11.00;;
8100;SDS011;4093;53.470;9.832;2022-10-13T12:19:51;22.83;;;11.65;;
8100;SDS011;4093;53.470;9.832;2022-10-13T12:22:19;17.05;;;11.05;;
8100;SDS011;4093;53.470;9.832;2022-10-13T12:24:55;18.73;;;11.40;;
8100;SDS011;4093;53.470;9.832;2022-10-13T12:27:25;18.35;;;11.57;;
8100;SDS011;4093;53.470;9.832;2022-10-13T12:29:54;20.38;;;12.45;;
8100;SDS011;4093;53.470;9.832;2022-10-13T12:32:23;16.88;;;11.43;;
8100;SDS011;4093;53.470;9.832;2022-10-13T12:34:55;18.25;;;11.45;;
8100;SDS011;4093;53.470;9.832;2022-10-13T12:37:24;16.30;;;11.15;;
8100;SDS011;4093;53.470;9.832;2022-10-13T12:39:55;16.45;;;10.70;;
8100;SDS011;4093;53.470;9.832;2022-10-13T12:42:26;16.58;;;9.88;;
8100;SDS011;4093;53.470;9.832;2022-10-13T12:44:56;19.80;;;10.93;;
8100;SDS011;4093;53.470;9.832;2022-10-13T12:47:35;17.95;;;9.77;;
8100;SDS011;4093;53.470;9.832;2022-10-13T12:50:30;13.85;;;10.82;;
8100;SDS011;4093;53.470;9.832;2022-10-13T12:53:13;21.02;;;11.20;;
8100;SDS011;4093;53.470;9.832;2022-10-13T12:55:45;17.40;;;10.23;;
8100;SDS011;4093;53.470;9.832;2022-10-13T12:58:17;14.98;;;9.93;;
8100;SDS011;4093;53.470;9.832;2022-10-13T13:00:59;14.35;;;9.20;;
8100;SDS011;4093;53.470;9.832;2022-10-13T13:03:35;16.77;;;9.48;;
8100;SDS011;4093;53.470;9.832;2022-10-13T13:06:09;17.67;;;10.07;;
8100;SDS011;4093;53.470;9.832;2022-10-13T13:11:48;14.63;;;8.73;;
8100;SDS011;4093;53.470;9.832;2022-10-13T13:14:47;15.73;;;8.38;;
8100;SDS011;4093;53.470;9.832;2022-10-13T13:17:21;12.33;;;8.77;;
8100;SDS011;4093;53.470;9.832;2022-10-13T13:20:17;18.27;;;9.90;;
8100;SDS011;4093;53.470;9.832;2022-10-13T13:22:48;14.00;;;9.27;;
8100;SDS011;4093;53.470;9.832;2022-10-13T13:25:17;15.43;;;9.43;;
8100;SDS011;4093;53.470;9.832;2022-10-13T13:27:45;18.53;;;10.33;;
8100;SDS011;4093;53.470;9.832;2022-10-13T13:30:14;14.80;;;9.67;;
8100;SDS011;4093;53.470;9.832;2022-10-13T13:32:44;13.98;;;8.57;;
8100;SDS011;4093;53.470;9.832;2022-10-13T13:35:12;16.90;;;9.07;;
8100;SDS011;4093;53.470;9.832;2022-10-13T13:37:40;19.45;;;9.52;;
8100;SDS011;4093;53.470;9.832;2022-10-13T13:40:15;15.23;;;9.20;;
8100;SDS011;4093;53.470;9.832;2022-10-13T13:42:44;17.25;;;9.43;;
8100;SDS011;4093;53.470;9.832;2022-10-13T13:45:12;18.20;;;9.43;;
8100;SDS011;4093;53.470;9.832;2022-10-13T13:47:41;18.02;;;8.73;;
8100;SDS011;4093;53.470;9.832;2022-10-13T13:50:10;12.40;;;7.95;;
8100;SDS011;4093;53.470;9.832;2022-10-13T13:52:42;13.48;;;8.48;;
8100;SDS011;4093;53.470;9.832;2022-10-13T13:55:10;15.18;;;8.18;;
8100;SDS011;4093;53.470;9.832;2022-10-13T13:57:40;15.13;;;8.73;;
8100;SDS011;4093;53.470;9.832;2022-10-13T14:00:09;12.85;;;7.70;;
8100;SDS011;4093;53.470;9.832;2022-10-13T14:02:38;11.60;;;7.78;;
8100;SDS011;4093;53.470;9.832;2022-10-13T14:05:06;15.37;;;7.60;;
8100;SDS011;4093;53.470;9.832;2022-10-13T14:07:34;9.75;;;6.40;;
8100;SDS011;4093;53.470;9.832;2022-10-13T14:10:03;18.27;;;8.10;;
8100;SDS011;4093;53.470;9.832;2022-10-13T14:12:31;16.10;;;8.02;;
8100;SDS011;4093;53.470;9.832;2022-10-13T14:15:01;14.18;;;7.53;;
8100;SDS011;4093;53.470;9.832;2022-10-13T14:17:28;15.50;;;8.35;;
8100;SDS011;4093;53.470;9.832;2022-10-13T14:19:56;11.93;;;7.10;;
8100;SDS011;4093;53.470;9.832;2022-10-13T14:22:24;12.37;;;6.97;;
8100;SDS011;4093;53.470;9.832;2022-10-13T14:24:52;15.55;;;7.40;;
8100;SDS011;4093;53.470;9.832;2022-10-13T14:27:20;14.03;;;7.00;;
8100;SDS011;4093;53.470;9.832;2022-10-13T14:29:48;14.40;;;7.63;;
8100;SDS011;4093;53.470;9.832;2022-10-13T14:32:17;10.40;;;6.90;;
8100;SDS011;4093;53.470;9.832;2022-10-13T14:34:45;10.30;;;6.63;;
8100;SDS011;4093;53.470;9.832;2022-10-13T14:37:13;18.10;;;8.25;;
8100;SDS011;4093;53.470;9.832;2022-10-13T14:39:46;14.35;;;7.03;;
8100;SDS011;4093;53.470;9.832;2022-10-13T14:42:13;12.33;;;7.80;;
8100;SDS011;4093;53.470;9.832;2022-10-13T14:44:41;11.13;;;7.53;;
8100;SDS011;4093;53.470;9.832;2022-10-13T14:47:09;10.93;;;7.35;;
8100;SDS011;4093;53.470;9.832;2022-10-13T14:49:39;16.00;;;7.32;;
8100;SDS011;4093;53.470;9.832;2022-10-13T14:52:06;14.93;;;6.93;;
8100;SDS011;4093;53.470;9.832;2022-10-13T14:54:35;10.48;;;6.63;;
8100;SDS011;4093;53.470;9.832;2022-10-13T14:57:09;13.83;;;6.27;;
8100;SDS011;4093;53.470;9.832;2022-10-13T14:59:41;10.43;;;5.68;;
8100;SDS011;4093;53.470;9.832;2022-10-13T15:02:09;9.30;;;5.87;;
8100;SDS011;4093;53.470;9.832;2022-10-13T15:04:39;13.23;;;7.30;;
8100;SDS011;4093;53.470;9.832;2022-10-13T15:07:07;18.70;;;7.13;;
8100;SDS011;4093;53.470;9.832;2022-10-13T15:09:35;14.48;;;6.80;;
8100;SDS011;4093;53.470;9.832;2022-10-13T15:12:18;9.25;;;5.57;;
8100;SDS011;4093;53.470;9.832;2022-10-13T15:14:47;10.27;;;5.93;;
8100;SDS011;4093;53.470;9.832;2022-10-13T15:17:14;15.25;;;7.85;;
8100;SDS011;4093;53.470;9.832;2022-10-13T15:19:43;12.90;;;6.32;;
8100;SDS011;4093;53.470;9.832;2022-10-13T15:22:11;14.70;;;7.17;;
8100;SDS011;4093;53.470;9.832;2022-10-13T15:24:39;14.60;;;7.53;;
8100;SDS011;4093;53.470;9.832;2022-10-13T15:27:07;16.63;;;6.83;;
8100;SDS011;4093;53.470;9.832;2022-10-13T15:29:35;12.20;;;6.22;;
8100;SDS011;4093;53.470;9.832;2022-10-13T15:32:06;19.83;;;7.28;;
8100;SDS011;4093;53.470;9.832;2022-10-13T15:34:36;16.47;;;6.90;;
8100;SDS011;4093;53.470;9.832;2022-10-13T15:37:06;15.52;;;7.10;;
8100;SDS011;4093;53.470;9.832;2022-10-13T15:39:34;15.45;;;7.13;;
8100;SDS011;4093;53.470;9.832;2022-10-13T15:42:02;13.00;;;5.93;;
8100;SDS011;4093;53.470;9.832;2022-10-13T15:44:30;12.73;;;6.03;;
8100;SDS011;4093;53.470;9.832;2022-10-13T15:47:18;14.50;;;7.07;;
8100;SDS011;4093;53.470;9.832;2022-10-13T15:49:46;12.27;;;6.22;;
8100;SDS011;4093;53.470;9.832;2022-10-13T15:52:15;16.13;;;7.28;;